Time;durP1;ratioP1;P1;durP2;ratioP2;P2;SDS_P1;SDS_P2;PMS_P1;PMS_P2;Temp;Humidity;BMP_temperature;BMP_pressure;BME280_temperature;BME280_humidity;BME280_pressure;Samples;Min_cycle;Max_cycle;Signal;HPM_P1;HPM_P2
2021/05/05 00:00:26;;;;;;;5.32;3.85;;;18.60;99.90;;;;;;4973252;28;20022;-80
2021/05/05 00:02:53;;;;;;;9.68;3.22;;;18.60;99.90;;;;;;4955326;28;20066;-82
2021/05/05 00:05:19;;;;;;;7.00;3.50;;;18.60;99.70;;;;;;4955819;28;20035;-83
2021/05/05 00:07:44;;;;;;;5.35;3.22;;;18.40;99.60;;;;;;4955072;28;20029;-84
2021/05/05 00:10:12;;;;;;;5.55;2.85;;;18.40;99.90;;;;;;4955720;28;20031;-85
2021/05/05 00:12:38;;;;;;;5.38;2.75;;;18.40;99.80;;;;;;4973159;28;20047;-88
2021/05/05 00:15:15;;;;;;;5.35;2.70;;;18.50;99.90;;;;;;4973403;28;20086;-86
2021/05/05 00:17:40;;;;;;;7.22;3.35;;;18.40;99.90;;;;;;4973646;28;20034;-86
2021/05/05 00:20:07;;;;;;;6.68;3.35;;;18.30;99.90;;;;;;4972814;28;20027;-83
2021/05/05 00:22:33;;;;;;;5.65;3.15;;;18.40;99.90;;;;;;4972652;28;20087;-82
2021/05/05 00:24:59;;;;;;;5.85;3.35;;;18.40;99.90;;;;;;4972555;28;20042;-82
2021/05/05 00:27:25;;;;;;;5.63;3.35;;;18.50;99.90;;;;;;4972461;28;20027;-85
2021/05/05 00:29:51;;;;;;;7.25;2.90;;;18.50;99.90;;;;;;4972759;28;20089;-82
2021/05/05 00:32:17;;;;;;;8.07;3.63;;;18.50;99.90;;;;;;4980480;28;20739;-81
2021/05/05 00:34:43;;;;;;;9.05;4.40;;;18.40;99.90;;;;;;4992499;28;20498;-85
2021/05/05 00:37:09;;;;;;;9.30;4.20;;;18.10;99.90;;;;;;4974702;28;20036;-82
2021/05/05 00:39:35;;;;;;;9.52;4.05;;;17.60;99.90;;;;;;4991794;28;20032;-80
2021/05/05 00:42:01;;;;;;;9.63;5.00;;;17.30;99.90;;;;;;4991997;28;20115;-84
2021/05/05 00:44:27;;;;;;;11.60;5.22;;;17.50;99.90;;;;;;4991870;28;20034;-83
2021/05/05 00:46:53;;;;;;;9.13;4.70;;;17.80;99.90;;;;;;4974513;28;20043;-82
2021/05/05 00:49:19;;;;;;;11.20;5.28;;;18.00;99.90;;;;;;4992169;28;20026;-82
2021/05/05 00:51:44;;;;;;;8.23;4.82;;;18.10;99.90;;;;;;4991897;28;20030;-82
2021/05/05 00:54:18;;;;;;;6.93;3.95;;;18.20;99.90;;;;;;4991612;28;20049;-82
2021/05/05 00:56:44;;;;;;;9.32;5.13;;;18.20;99.90;;;;;;4992119;28;20474;-81
2021/05/05 00:59:11;;;;;;;9.18;4.40;;;18.20;99.90;;;;;;4991583;28;20026;-83
2021/05/05 01:01:39;;;;;;;9.55;4.20;;;18.20;99.90;;;;;;4992308;28;20076;-84
2021/05/05 01:04:05;;;;;;;7.10;4.70;;;18.20;99.90;;;;;;4991856;28;20040;-83
2021/05/05 01:06:31;;;;;;;9.43;5.40;;;18.10;99.90;;;;;;4991809;28;20027;-82
2021/05/05 01:08:57;;;;;;;10.95;4.50;;;18.00;99.90;;;;;;4991377;28;20081;-82
2021/05/05 01:11:23;;;;;;;11.95;5.30;;;18.20;99.90;;;;;;4991691;28;20023;-82
2021/05/05 01:13:48;;;;;;;8.88;5.15;;;18.20;99.90;;;;;;4991541;28;20085;-81
2021/05/05 01:16:15;;;;;;;6.40;3.40;;;18.20;99.90;;;;;;4977662;28;20528;-88
2021/05/05 01:18:42;;;;;;;7.32;3.60;;;18.20;99.90;;;;;;4997758;28;20030;-89
2021/05/05 01:21:08;;;;;;;9.20;4.10;;;18.20;99.90;;;;;;4995463;28;20025;-84
2021/05/05 01:23:34;;;;;;;8.05;4.18;;;18.10;99.90;;;;;;4996226;28;20038;-89
2021/05/05 01:26:00;;;;;;;7.90;4.28;;;18.10;99.90;;;;;;4995748;28;20038;-90
2021/05/05 01:28:27;;;;;;;8.68;4.25;;;18.20;99.90;;;;;;4996351;28;20058;-85
2021/05/05 01:30:53;;;;;;;8.73;4.13;;;18.10;99.90;;;;;;4995619;28;20037;-89
2021/05/05 01:33:19;;;;;;;7.38;3.63;;;18.20;99.90;;;;;;5012198;28;20058;-85
2021/05/05 01:35:48;;;;;;;10.60;3.83;;;18.20;99.90;;;;;;5015828;28;20022;-91
2021/05/05 01:38:14;;;;;;;7.22;3.83;;;18.20;99.90;;;;;;5015662;28;20065;-91
2021/05/05 01:40:42;;;;;;;8.70;4.60;;;18.00;99.90;;;;;;4997896;28;20033;-89
2021/05/05 01:43:07;;;;;;;10.95;4.78;;;17.90;99.90;;;;;;4997070;28;20033;-90
2021/05/05 01:45:35;;;;;;;10.07;5.10;;;18.00;99.90;;;;;;4997210;28;20040;-86
2021/05/05 01:48:03;;;;;;;10.68;5.32;;;17.40;99.90;;;;;;5014279;28;20029;-85
2021/05/05 01:50:29;;;;;;;9.20;4.93;;;17.10;99.90;;;;;;4997548;28;20034;-88
2021/05/05 01:52:55;;;;;;;9.70;4.68;;;17.00;99.90;;;;;;5013339;28;20061;-87
2021/05/05 01:55:21;;;;;;;9.82;5.35;;;17.00;99.90;;;;;;5015091;28;20101;-90
2021/05/05 01:57:48;;;;;;;9.13;5.25;;;17.30;99.90;;;;;;5014460;28;20029;-89
2021/05/05 02:00:17;;;;;;;9.18;5.00;;;17.40;99.90;;;;;;5014705;28;20117;-88
2021/05/05 02:02:44;;;;;;;11.18;5.50;;;17.60;99.90;;;;;;4996325;28;20041;-87
2021/05/05 02:05:10;;;;;;;10.40;5.30;;;17.60;99.90;;;;;;5014205;28;20091;-85
2021/05/05 02:07:37;;;;;;;9.63;5.43;;;17.50;99.90;;;;;;5001194;28;20022;-89
2021/05/05 02:10:09;;;;;;;8.38;5.18;;;17.60;99.90;;;;;;4977251;28;20057;-84
2021/05/05 02:12:35;;;;;;;9.85;4.95;;;17.60;99.90;;;;;;4977034;28;20026;-83
2021/05/05 02:15:01;;;;;;;9.15;6.13;;;17.30;99.90;;;;;;4993900;28;20035;-84
2021/05/05 02:17:27;;;;;;;8.57;5.50;;;17.00;99.90;;;;;;4994470;28;20101;-84
2021/05/05 02:19:53;;;;;;;10.80;5.05;;;17.10;99.90;;;;;;4976548;28;20118;-85
2021/05/05 02:22:19;;;;;;;6.72;4.90;;;17.40;99.90;;;;;;4994210;28;20077;-81
2021/05/05 02:24:45;;;;;;;7.53;5.07;;;17.60;99.90;;;;;;4993901;28;20026;-86
2021/05/05 02:27:11;;;;;;;7.90;5.10;;;17.70;99.90;;;;;;4993563;28;20438;-85
2021/05/05 02:29:36;;;;;;;10.18;5.35;;;17.70;99.90;;;;;;4994063;28;20030;-85
2021/05/05 02:32:07;;;;;;;7.22;4.38;;;17.30;99.90;;;;;;4975900;28;20054;-83
2021/05/05 02:34:35;;;;;;;10.40;5.10;;;17.10;99.90;;;;;;4976636;28;20049;-85
2021/05/05 02:37:00;;;;;;;10.05;5.55;;;17.00;99.90;;;;;;4976126;28;20026;-84
2021/05/05 02:39:26;;;;;;;14.30;7.05;;;17.00;99.90;;;;;;4993663;28;20035;-84
2021/05/05 02:41:52;;;;;;;7.15;4.90;;;17.00;99.90;;;;;;4994322;28;20026;-90
2021/05/05 02:44:18;;;;;;;10.43;5.35;;;17.20;99.90;;;;;;4977835;28;20035;-88
2021/05/05 02:46:44;;;;;;;9.60;4.40;;;17.20;99.90;;;;;;4994636;28;20117;-87
2021/05/05 02:49:10;;;;;;;7.95;4.88;;;17.20;99.90;;;;;;4976334;28;20265;-85
2021/05/05 02:51:36;;;;;;;13.00;4.90;;;17.40;99.90;;;;;;4994657;28;20406;-88
2021/05/05 02:54:02;;;;;;;8.88;4.63;;;17.50;99.90;;;;;;4993374;28;20030;-85
2021/05/05 02:56:28;;;;;;;16.92;5.38;;;17.50;99.90;;;;;;4993920;28;20030;-83
2021/05/05 02:58:54;;;;;;;10.85;4.72;;;17.50;99.90;;;;;;4993705;28;20018;-84
2021/05/05 03:01:19;;;;;;;10.93;5.82;;;17.20;99.90;;;;;;4993302;28;20045;-81
2021/05/05 03:03:45;;;;;;;8.55;4.85;;;17.20;99.90;;;;;;4993087;28;20026;-81
2021/05/05 03:06:11;;;;;;;12.30;5.18;;;17.20;99.90;;;;;;4993982;28;20181;-85
2021/05/05 03:08:37;;;;;;;9.68;4.97;;;17.40;99.90;;;;;;5013257;28;20095;-83
2021/05/05 03:11:02;;;;;;;7.40;4.82;;;17.10;99.90;;;;;;4994662;28;20425;-82
2021/05/05 03:13:29;;;;;;;9.93;5.53;;;17.20;99.90;;;;;;5012982;28;20490;-82
2021/05/05 03:15:54;;;;;;;8.15;5.32;;;17.30;99.90;;;;;;5012978;28;20033;-79
2021/05/05 03:18:20;;;;;;;11.20;5.30;;;17.40;99.90;;;;;;4994950;28;20026;-82
2021/05/05 03:20:46;;;;;;;10.07;4.82;;;17.50;99.90;;;;;;4995073;28;20030;-82
2021/05/05 03:23:12;;;;;;;8.43;4.43;;;17.50;99.90;;;;;;5012862;28;20482;-79
2021/05/05 03:25:40;;;;;;;11.30;4.88;;;17.50;99.90;;;;;;5012145;28;20128;-82
2021/05/05 03:28:06;;;;;;;8.32;4.30;;;17.60;99.90;;;;;;5012466;28;20017;-83
2021/05/05 03:30:32;;;;;;;9.57;5.45;;;17.50;99.90;;;;;;5012664;28;20169;-84
2021/05/05 03:32:57;;;;;;;10.10;4.75;;;17.50;99.90;;;;;;5012211;28;20081;-83
2021/05/05 03:35:23;;;;;;;8.63;4.82;;;17.50;99.90;;;;;;5012603;28;20076;-85
2021/05/05 03:37:49;;;;;;;9.32;4.15;;;17.50;99.90;;;;;;5011357;28;20077;-83
2021/05/05 03:40:15;;;;;;;7.60;4.50;;;17.50;99.90;;;;;;5012175;28;20098;-83
2021/05/05 03:42:40;;;;;;;9.25;4.88;;;17.50;99.90;;;;;;5012183;28;20044;-81
2021/05/05 03:45:08;;;;;;;9.35;4.50;;;17.50;99.90;;;;;;5011980;28;20092;-84
2021/05/05 03:47:34;;;;;;;10.90;4.30;;;16.90;99.90;;;;;;5012799;28;20025;-83
2021/05/05 03:50:00;;;;;;;7.95;4.82;;;16.60;99.90;;;;;;5011714;28;20026;-83
2021/05/05 03:52:26;;;;;;;10.20;5.20;;;16.30;99.90;;;;;;5012876;28;20029;-86
2021/05/05 03:54:53;;;;;;;13.45;4.97;;;16.30;99.90;;;;;;5012989;28;20057;-87
2021/05/05 03:57:18;;;;;;;10.52;5.25;;;16.70;99.90;;;;;;5012340;28;20037;-82
2021/05/05 03:59:44;;;;;;;7.13;4.60;;;16.90;99.90;;;;;;5012482;28;20022;-89
2021/05/05 04:02:10;;;;;;;10.40;4.50;;;17.00;99.90;;;;;;5013456;28;20034;-88
2021/05/05 04:04:36;;;;;;;13.77;4.75;;;17.10;99.90;;;;;;4994898;28;20133;-84
2021/05/05 04:07:02;;;;;;;8.48;5.00;;;17.20;99.90;;;;;;5006165;28;20034;-82
2021/05/05 04:09:27;;;;;;;12.55;5.10;;;16.90;99.90;;;;;;4974783;28;20677;-83
2021/05/05 04:11:53;;;;;;;7.68;4.60;;;16.70;99.90;;;;;;4992247;28;20065;-84
2021/05/05 04:14:19;;;;;;;12.77;4.80;;;16.70;99.90;;;;;;4974617;28;20026;-82
2021/05/05 04:16:45;;;;;;;12.45;4.90;;;16.70;99.90;;;;;;4991768;28;20030;-80
2021/05/05 04:19:11;;;;;;;9.50;4.55;;;17.00;99.90;;;;;;4992258;28;20042;-83
2021/05/05 04:21:36;;;;;;;12.95;5.28;;;17.20;99.90;;;;;;4992076;28;20022;-80
2021/05/05 04:24:02;;;;;;;8.25;4.57;;;17.30;99.90;;;;;;4992233;28;20034;-78
2021/05/05 04:26:28;;;;;;;9.95;4.97;;;17.40;99.90;;;;;;4991952;28;20069;-80
2021/05/05 04:28:54;;;;;;;11.65;5.53;;;17.10;99.90;;;;;;4991900;28;20026;-81
2021/05/05 04:31:20;;;;;;;9.98;5.20;;;17.00;99.90;;;;;;4992344;28;20429;-82
2021/05/05 04:33:46;;;;;;;14.25;5.40;;;16.80;99.90;;;;;;4972334;28;20067;-80
2021/05/05 04:36:13;;;;;;;9.38;5.20;;;17.00;99.90;;;;;;4955101;28;20084;-80
2021/05/05 04:38:40;;;;;;;7.78;5.55;;;17.00;99.90;;;;;;4972663;28;20027;-81
2021/05/05 04:41:05;;;;;;;9.15;4.43;;;16.90;99.90;;;;;;4972898;28;20475;-79
2021/05/05 04:43:31;;;;;;;12.18;5.47;;;17.00;99.90;;;;;;4955285;28;20034;-83
2021/05/05 04:45:57;;;;;;;9.68;4.57;;;17.10;99.90;;;;;;4955207;28;20162;-81
2021/05/05 04:48:23;;;;;;;10.65;5.43;;;17.30;99.90;;;;;;4972537;28;20054;-80
2021/05/05 04:50:48;;;;;;;9.77;5.45;;;17.20;99.90;;;;;;4975955;28;20153;-82
2021/05/05 04:53:14;;;;;;;13.27;6.50;;;17.10;99.90;;;;;;4976074;28;20023;-82
2021/05/05 04:55:40;;;;;;;12.27;5.93;;;17.40;99.90;;;;;;4976330;28;20031;-84
2021/05/05 04:58:05;;;;;;;9.77;5.13;;;17.50;99.90;;;;;;4976385;28;20061;-85
2021/05/05 05:00:31;;;;;;;15.50;5.68;;;17.50;99.90;;;;;;4975896;28;20039;-83
2021/05/05 05:02:57;;;;;;;14.05;6.20;;;17.50;99.90;;;;;;4958999;28;20026;-82
2021/05/05 05:05:23;;;;;;;52.78;31.85;;;17.70;99.90;;;;;;4976222;28;20479;-79
2021/05/05 05:07:49;;;;;;;48.70;31.30;;;17.70;99.90;;;;;;4975792;28;20019;-80
2021/05/05 05:10:15;;;;;;;19.95;11.50;;;17.80;99.90;;;;;;4975939;28;20026;-80
2021/05/05 05:12:41;;;;;;;14.73;7.10;;;17.70;99.90;;;;;;4958428;28;20063;-83
2021/05/05 05:15:22;;;;;;;11.30;5.50;;;17.40;99.90;;;;;;4975754;28;20122;-82
2021/05/05 05:17:48;;;;;;;;;;;17.50;99.90;;;;;;4975964;28;20031;-81
2021/05/05 05:20:14;;;;;;;12.20;5.25;;;17.60;99.90;;;;;;4958366;28;19906;-88
2021/05/05 05:22:40;;;;;;;12.52;5.60;;;17.60;99.90;;;;;;4958305;28;20072;-82
2021/05/05 05:25:10;;;;;;;15.38;6.18;;;17.70;99.90;;;;;;4958561;28;20158;-85
2021/05/05 05:27:37;;;;;;;10.07;5.22;;;17.80;99.90;;;;;;4958348;28;20026;-86
2021/05/05 05:30:05;;;;;;;12.05;4.88;;;17.90;99.90;;;;;;4975993;28;20483;-84
2021/05/05 05:32:31;;;;;;;10.80;5.55;;;17.80;99.90;;;;;;4975991;28;20055;-87
2021/05/05 05:35:00;;;;;;;11.70;4.95;;;17.90;99.90;;;;;;4975889;28;20037;-86
2021/05/05 05:37:25;;;;;;;7.47;4.35;;;17.90;99.90;;;;;;4975486;28;20481;-86
2021/05/05 05:39:52;;;;;;;8.27;4.93;;;17.80;99.90;;;;;;4975903;28;20035;-84
2021/05/05 05:42:17;;;;;;;17.05;6.85;;;17.40;99.90;;;;;;4975991;28;20023;-84
2021/05/05 05:44:43;;;;;;;9.13;4.47;;;17.60;99.90;;;;;;4957461;28;20390;-84
2021/05/05 05:47:09;;;;;;;10.32;5.10;;;17.30;99.90;;;;;;4975243;28;20037;-84
2021/05/05 05:49:35;;;;;;;12.52;6.00;;;17.40;99.90;;;;;;4975299;28;20102;-80
2021/05/05 05:52:01;;;;;;;12.23;5.22;;;17.50;99.90;;;;;;4974456;28;20034;-80
2021/05/05 05:54:27;;;;;;;9.38;4.82;;;17.40;99.90;;;;;;4975249;28;20110;-82
2021/05/05 05:56:52;;;;;;;11.88;4.97;;;17.30;99.90;;;;;;4975015;28;20113;-82
2021/05/05 05:59:18;;;;;;;15.75;5.65;;;16.90;99.90;;;;;;4970603;28;20853;-85
2021/05/05 06:01:44;;;;;;;11.00;4.82;;;16.70;99.90;;;;;;4976971;28;20033;-85
2021/05/05 06:04:10;;;;;;;9.27;5.03;;;16.80;99.90;;;;;;4974248;28;20015;-80
2021/05/05 06:06:35;;;;;;;13.52;5.25;;;16.90;99.90;;;;;;4974418;28;20065;-81
2021/05/05 06:09:02;;;;;;;12.77;5.85;;;17.00;99.90;;;;;;4981494;28;20035;-81
2021/05/05 06:11:28;;;;;;;9.10;4.70;;;17.00;99.90;;;;;;4973224;28;20032;-81
2021/05/05 06:13:54;;;;;;;15.90;10.50;;;16.90;99.90;;;;;;4993396;28;20030;-83
2021/05/05 06:16:19;;;;;;;30.58;20.08;;;16.90;99.90;;;;;;4974309;28;20382;-84
2021/05/05 06:18:45;;;;;;;40.08;22.45;;;17.10;99.90;;;;;;4974188;28;20055;-81
2021/05/05 06:21:11;;;;;;;30.63;15.27;;;17.20;99.90;;;;;;4959387;28;20045;-79
2021/05/05 06:23:37;;;;;;;16.73;8.07;;;17.40;99.90;;;;;;4981453;28;20058;-80
2021/05/05 06:26:03;;;;;;;11.88;5.50;;;17.60;99.90;;;;;;4977425;28;20498;-81
2021/05/05 06:28:28;;;;;;;9.80;5.10;;;17.80;99.90;;;;;;4983594;28;20482;-79
2021/05/05 06:30:57;;;;;;;10.80;5.50;;;17.90;99.90;;;;;;4963814;28;20117;-82
2021/05/05 06:33:23;;;;;;;12.13;4.60;;;17.90;99.90;;;;;;4973580;28;20446;-83
2021/05/05 06:35:49;;;;;;;11.25;4.90;;;18.00;99.90;;;;;;4992606;28;20039;-77
2021/05/05 06:38:14;;;;;;;11.27;5.32;;;18.10;99.90;;;;;;4992203;28;20038;-82
2021/05/05 06:40:40;;;;;;;11.00;5.78;;;18.10;99.90;;;;;;4992076;28;20026;-78
2021/05/05 06:43:06;;;;;;;20.48;5.93;;;18.10;99.90;;;;;;4975082;28;20056;-83
2021/05/05 06:45:32;;;;;;;14.65;5.40;;;18.20;99.90;;;;;;4992188;28;20045;-81
2021/05/05 06:47:58;;;;;;;10.18;4.63;;;18.00;99.90;;;;;;4992483;28;20094;-82
2021/05/05 06:50:25;;;;;;;9.00;4.40;;;17.70;99.90;;;;;;4974347;28;20031;-82
2021/05/05 06:52:51;;;;;;;16.42;5.10;;;17.90;99.90;;;;;;4974710;28;20022;-87
2021/05/05 06:55:17;;;;;;;11.13;4.45;;;18.00;99.90;;;;;;4992988;28;20054;-89
2021/05/05 06:57:42;;;;;;;14.98;5.38;;;18.00;99.90;;;;;;4994309;28;20085;-85
2021/05/05 07:00:09;;;;;;;10.65;4.97;;;18.20;99.90;;;;;;4992991;28;20084;-79
2021/05/05 07:02:35;;;;;;;9.32;4.45;;;18.20;99.90;;;;;;4992219;28;20023;-79
2021/05/05 07:05:02;;;;;;;8.13;5.03;;;18.20;99.90;;;;;;4990421;28;20402;-85
2021/05/05 07:07:30;;;;;;;8.80;3.83;;;18.30;99.90;;;;;;4992213;28;20047;-82
2021/05/05 07:09:57;;;;;;;11.18;5.05;;;18.40;99.90;;;;;;4992224;28;20417;-82
2021/05/05 07:12:23;;;;;;;6.75;3.50;;;18.40;99.90;;;;;;4991506;28;20484;-88
2021/05/05 07:14:50;;;;;;;12.70;4.97;;;18.20;99.90;;;;;;4975302;28;20026;-83
2021/05/05 07:17:16;;;;;;;15.23;5.68;;;18.40;99.90;;;;;;4991460;28;20026;-82
2021/05/05 07:19:41;;;;;;;10.48;4.13;;;18.60;99.90;;;;;;4974556;28;20425;-84
2021/05/05 07:22:07;;;;;;;10.27;4.45;;;18.60;99.90;;;;;;4991466;28;20352;-79
2021/05/05 07:24:37;;;;;;;6.68;3.60;;;18.60;99.90;;;;;;4973442;28;20109;-83
2021/05/05 07:27:03;;;;;;;6.93;3.70;;;18.60;99.90;;;;;;4991615;28;20030;-80
2021/05/05 07:29:29;;;;;;;10.13;4.18;;;18.70;99.90;;;;;;4991255;28;20026;-79
2021/05/05 07:31:54;;;;;;;14.13;4.60;;;18.80;99.90;;;;;;4991595;28;20046;-79
2021/05/05 07:34:22;;;;;;;11.60;4.40;;;18.90;99.90;;;;;;5001535;28;20022;-85
2021/05/05 07:36:49;;;;;;;21.20;4.90;;;18.90;99.90;;;;;;5001805;28;20030;-76
2021/05/05 07:47:23;;;;;;;9.68;4.22;;;18.80;99.90;;;;;;4994492;28;20084;-83
2021/05/05 07:49:50;;;;;;;8.25;4.05;;;18.80;99.90;;;;;;4995603;28;20037;-84
2021/05/05 07:52:17;;;;;;;11.00;3.90;;;18.80;99.90;;;;;;4992866;28;20026;-85
2021/05/05 07:54:43;;;;;;;12.13;4.95;;;18.90;99.90;;;;;;5000211;28;20076;-87
2021/05/05 07:57:09;;;;;;;8.40;5.13;;;18.90;99.90;;;;;;5012198;28;20101;-86
2021/05/05 07:59:36;;;;;;;10.82;3.83;;;19.20;99.90;;;;;;4987409;28;20030;-84
2021/05/05 08:02:02;;;;;;;7.22;3.75;;;19.20;99.90;;;;;;5002053;28;20440;-83
2021/05/05 08:04:28;;;;;;;6.80;4.10;;;19.20;99.90;;;;;;5000841;28;20015;-86
2021/05/05 08:06:53;;;;;;;11.20;4.93;;;19.20;99.90;;;;;;5002742;28;20039;-78
2021/05/05 08:09:21;;;;;;;10.30;4.25;;;19.30;99.90;;;;;;5006097;28;20030;-82
2021/05/05 08:11:47;;;;;;;9.65;4.30;;;19.30;99.90;;;;;;4978833;28;20038;-87
2021/05/05 08:14:13;;;;;;;7.65;4.03;;;19.40;99.90;;;;;;5002313;28;20026;-86
2021/05/05 08:16:38;;;;;;;10.30;4.68;;;19.60;99.90;;;;;;5011447;28;20497;-86
2021/05/05 08:19:04;;;;;;;8.65;4.05;;;19.60;99.90;;;;;;5011111;28;20033;-83
2021/05/05 08:21:30;;;;;;;9.35;4.18;;;19.70;99.90;;;;;;4997326;28;20034;-85
2021/05/05 08:23:57;;;;;;;9.98;4.00;;;19.80;99.90;;;;;;4990439;28;20034;-86
2021/05/05 08:26:23;;;;;;;9.20;4.35;;;19.90;99.90;;;;;;4995943;28;20042;-77
2021/05/05 08:28:49;;;;;;;8.75;4.65;;;19.90;99.90;;;;;;4995111;28;20466;-78
2021/05/05 08:31:15;;;;;;;8.15;4.45;;;20.30;99.90;;;;;;4994497;28;20037;-80
2021/05/05 08:33:41;;;;;;;6.82;3.47;;;20.40;98.00;;;;;;4995542;28;20049;-79
2021/05/05 08:36:07;;;;;;;8.38;3.72;;;20.40;98.60;;;;;;4995943;28;20038;-78
2021/05/05 08:38:33;;;;;;;10.00;3.45;;;20.40;98.00;;;;;;4995316;28;20027;-79
2021/05/05 08:40:59;;;;;;;8.25;3.38;;;20.40;97.00;;;;;;4995687;28;20030;-77
2021/05/05 08:43:26;;;;;;;8.10;3.28;;;20.40;97.40;;;;;;4977896;28;20126;-77
2021/05/05 08:45:57;;;;;;;7.22;3.30;;;20.50;96.90;;;;;;4978678;28;20395;-77
2021/05/05 08:48:23;;;;;;;6.78;3.40;;;20.50;97.40;;;;;;4989545;28;20397;-78
2021/05/05 08:50:49;;;;;;;8.15;4.68;;;20.50;96.10;;;;;;4995060;28;20550;-76
2021/05/05 08:53:15;;;;;;;10.25;3.45;;;20.50;96.50;;;;;;4977267;28;20037;-79
2021/05/05 08:55:41;;;;;;;10.45;4.10;;;20.30;96.90;;;;;;4994645;28;20026;-78
2021/05/05 08:58:07;;;;;;;6.53;3.60;;;20.30;97.10;;;;;;4977398;28;20023;-84
2021/05/05 09:00:36;;;;;;;8.35;3.40;;;20.50;97.10;;;;;;4987849;28;20127;-79
2021/05/05 09:03:05;;;;;;;8.25;3.60;;;20.40;97.20;;;;;;4990065;28;20023;-78
2021/05/05 09:05:52;;;;;;;6.85;3.55;;;20.40;97.10;;;;;;4976626;28;20038;-79
2021/05/05 09:08:18;;;;;;;6.90;3.72;;;20.40;97.50;;;;;;4990383;28;20061;-78
2021/05/05 09:11:01;;;;;;;12.25;3.83;;;20.50;97.70;;;;;;4991926;28;20030;-78
2021/05/05 09:13:50;;;;;;;8.68;4.03;;;20.40;96.70;;;;;;4990461;28;20033;-77
2021/05/05 09:16:29;;;;;;;11.63;3.47;;;20.60;95.90;;;;;;4974823;28;20157;-79
2021/05/05 09:19:07;;;;;;;7.35;3.42;;;20.50;95.70;;;;;;4980353;28;20022;-83
2021/05/05 09:21:38;;;;;;;8.00;3.55;;;20.80;96.50;;;;;;4974060;28;20041;-81
2021/05/05 09:24:31;;;;;;;7.75;3.17;;;20.60;95.20;;;;;;4993831;28;20053;-82
2021/05/05 09:27:06;;;;;;;5.95;3.28;;;20.80;94.70;;;;;;4990147;28;20042;-82
2021/05/05 09:29:46;;;;;;;4.88;3.00;;;20.90;95.00;;;;;;4988787;28;20109;-82
2021/05/05 09:32:14;;;;;;;6.28;2.78;;;20.90;92.90;;;;;;4981855;28;20061;-84
2021/05/05 09:34:40;;;;;;;9.55;2.90;;;21.00;92.90;;;;;;4996642;28;20077;-84
2021/05/05 09:37:10;;;;;;;7.47;3.33;;;21.20;92.10;;;;;;4977287;28;20034;-84
2021/05/05 09:39:39;;;;;;;7.85;3.45;;;21.40;92.80;;;;;;4994131;28;20038;-80
2021/05/05 09:42:24;;;;;;;6.40;2.83;;;21.20;89.40;;;;;;4998889;28;20371;-78
2021/05/05 09:45:11;;;;;;;6.05;2.40;;;21.10;86.30;;;;;;4999125;28;20089;-81
2021/05/05 09:47:55;;;;;;;5.78;2.80;;;21.10;86.10;;;;;;4994526;28;20475;-79
2021/05/05 09:50:38;;;;;;;7.47;3.10;;;21.30;87.20;;;;;;4991211;28;20113;-79
2021/05/05 09:53:23;;;;;;;6.35;2.83;;;21.50;89.10;;;;;;4991050;28;20026;-78
2021/05/05 09:55:57;;;;;;;6.60;2.53;;;21.70;85.70;;;;;;4994118;28;20026;-79
2021/05/05 09:58:32;;;;;;;6.53;2.65;;;22.10;82.20;;;;;;4994034;28;20105;-77
2021/05/05 10:01:22;;;;;;;7.47;2.90;;;22.20;82.00;;;;;;4976132;28;20478;-77
2021/05/05 10:03:55;;;;;;;8.00;2.88;;;22.50;80.90;;;;;;4993420;28;20149;-78
2021/05/05 10:06:22;;;;;;;6.28;2.97;;;22.60;82.50;;;;;;5000228;28;20045;-77
2021/05/05 10:11:47;;;;;;;7.18;2.80;;;22.60;80.80;;;;;;4993538;28;20508;-79
2021/05/05 10:14:14;;;;;;;5.97;2.90;;;22.30;81.00;;;;;;4973511;28;20894;-80
2021/05/05 10:16:51;;;;;;;7.70;3.17;;;22.20;80.50;;;;;;4976010;28;20475;-81
2021/05/05 10:19:25;;;;;;;7.65;2.65;;;22.50;79.60;;;;;;4992774;28;20034;-80
2021/05/05 10:21:56;;;;;;;5.07;2.55;;;22.30;78.50;;;;;;5005963;28;20596;-78
2021/05/05 10:24:23;;;;;;;6.43;2.90;;;22.60;78.50;;;;;;4990518;28;20042;-80
2021/05/05 10:26:50;;;;;;;8.05;2.92;;;22.90;78.00;;;;;;4990174;28;20520;-79
2021/05/05 10:29:16;;;;;;;7.30;2.80;;;23.00;76.30;;;;;;5001188;28;20096;-78
2021/05/05 10:31:46;;;;;;;5.60;2.50;;;23.00;75.40;;;;;;4994957;28;20074;-77
2021/05/05 10:34:25;;;;;;;6.28;2.40;;;23.60;75.80;;;;;;5012551;28;20032;-81
2021/05/05 10:36:56;;;;;;;17.70;2.75;;;23.80;68.80;;;;;;5000057;28;20518;-82
2021/05/05 10:39:22;;;;;;;5.22;2.22;;;24.00;65.00;;;;;;4980110;28;20516;-81
2021/05/05 10:42:00;;;;;;;7.43;2.00;;;24.10;62.40;;;;;;4996448;28;20033;-78
2021/05/05 10:44:58;;;;;;;7.95;2.08;;;24.30;63.70;;;;;;4998364;28;20026;-79
2021/05/05 10:47:36;;;;;;;4.32;2.28;;;24.20;65.60;;;;;;5006366;28;20026;-78
2021/05/05 10:50:07;;;;;;;5.13;2.08;;;24.40;64.90;;;;;;4995282;28;20378;-80
2021/05/05 10:52:41;;;;;;;8.88;2.47;;;24.30;66.70;;;;;;5008639;28;20033;-77
2021/05/05 10:55:12;;;;;;;4.57;2.20;;;24.30;63.80;;;;;;5002109;28;20066;-78
2021/05/05 10:57:39;;;;;;;7.72;2.40;;;24.50;64.20;;;;;;5003674;28;20470;-78
2021/05/05 11:00:17;;;;;;;11.50;2.67;;;24.30;64.60;;;;;;5001917;28;20033;-80
2021/05/05 11:02:44;;;;;;;7.55;2.13;;;24.70;64.20;;;;;;5001918;28;20026;-81
2021/05/05 11:05:31;;;;;;;10.10;2.10;;;24.90;62.30;;;;;;4999870;28;20038;-82
2021/05/05 11:08:08;;;;;;;6.55;2.33;;;24.90;62.00;;;;;;4980176;28;20034;-79
2021/05/05 11:10:35;;;;;;;5.40;2.45;;;24.00;64.80;;;;;;4979739;28;20109;-78
2021/05/05 11:13:03;;;;;;;6.93;2.72;;;24.10;63.00;;;;;;5000986;28;20102;-78
2021/05/05 11:15:42;;;;;;;4.75;2.00;;;24.10;62.90;;;;;;4979908;28;20517;-79
2021/05/05 11:18:27;;;;;;;5.57;2.70;;;24.70;63.40;;;;;;4997013;28;20482;-78
2021/05/05 11:20:57;;;;;;;7.60;2.30;;;24.60;61.50;;;;;;4998494;28;20391;-78
2021/05/05 11:23:52;;;;;;;7.25;3.22;;;24.40;62.80;;;;;;4999709;28;20041;-78
2021/05/05 11:26:33;;;;;;;8.07;2.40;;;25.10;61.90;;;;;;4982953;28;20050;-79
2021/05/05 11:29:00;;;;;;;4.53;2.05;;;25.00;61.50;;;;;;5000301;28;20093;-78
2021/05/05 11:31:45;;;;;;;4.82;1.70;;;24.50;60.80;;;;;;4999176;28;20022;-79
2021/05/05 11:34:23;;;;;;;6.53;2.63;;;24.80;61.00;;;;;;4998018;28;20084;-81
2021/05/05 11:36:58;;;;;;;3.97;1.95;;;25.10;61.20;;;;;;4997786;28;20065;-79
2021/05/05 11:39:33;;;;;;;4.47;1.88;;;25.30;59.70;;;;;;4989982;28;20027;-78
2021/05/05 11:42:06;;;;;;;3.75;1.95;;;25.00;60.40;;;;;;4972147;28;20359;-80
2021/05/05 11:44:36;;;;;;;5.75;1.90;;;25.20;60.10;;;;;;4991638;28;20054;-80
2021/05/05 11:47:08;;;;;;;8.40;1.77;;;25.70;58.70;;;;;;4991566;28;20547;-83
2021/05/05 11:49:37;;;;;;;5.07;2.22;;;25.90;58.30;;;;;;4988550;28;20045;-82
2021/05/05 11:52:25;;;;;;;4.68;2.05;;;26.00;58.50;;;;;;4990413;28;20089;-78
2021/05/05 11:54:58;;;;;;;4.47;2.15;;;25.70;58.60;;;;;;4990713;28;20033;-80
2021/05/05 11:57:29;;;;;;;6.20;2.33;;;26.10;59.30;;;;;;4973277;28;20088;-80
2021/05/05 12:00:08;;;;;;;5.00;2.25;;;26.30;59.40;;;;;;4987951;28;20490;-79
2021/05/05 12:02:47;;;;;;;4.70;2.20;;;26.40;58.30;;;;;;4970463;28;20048;-77
2021/05/05 12:05:28;;;;;;;6.03;2.13;;;26.70;58.10;;;;;;4990879;28;20034;-82
2021/05/05 12:08:15;;;;;;;5.68;2.10;;;26.60;57.50;;;;;;4990332;28;20152;-81
2021/05/05 12:10:54;;;;;;;8.35;2.28;;;27.10;57.20;;;;;;4987969;28;20493;-82
2021/05/05 12:13:27;;;;;;;6.07;2.15;;;26.80;56.90;;;;;;4990047;28;20466;-82
2021/05/05 12:16:00;;;;;;;7.53;2.67;;;26.80;56.60;;;;;;4989560;28;20042;-84
2021/05/05 12:18:31;;;;;;;8.40;2.40;;;26.60;56.30;;;;;;4989328;28;20069;-83
2021/05/05 12:21:12;;;;;;;6.50;2.30;;;26.90;57.00;;;;;;4988510;28;20023;-79
2021/05/05 12:23:43;;;;;;;4.15;1.70;;;27.00;57.00;;;;;;4987921;28;20027;-85
2021/05/05 12:26:16;;;;;;;6.22;1.92;;;26.80;56.40;;;;;;4992914;28;20044;-85
2021/05/05 12:28:43;;;;;;;4.97;1.85;;;26.40;57.20;;;;;;4973921;28;20023;-78
2021/05/05 12:31:14;;;;;;;7.93;2.25;;;26.40;57.40;;;;;;4974618;28;20080;-81
2021/05/05 12:33:42;;;;;;;6.45;1.80;;;26.50;56.60;;;;;;4990718;28;20073;-80
2021/05/05 12:36:14;;;;;;;6.70;1.98;;;26.20;57.10;;;;;;4990284;28;20035;-81
2021/05/05 12:38:43;;;;;;;4.32;2.00;;;26.40;56.80;;;;;;4973756;28;20390;-78
2021/05/05 12:41:12;;;;;;;5.43;2.28;;;26.50;57.40;;;;;;4990972;28;20014;-81
2021/05/05 12:43:38;;;;;;;4.75;2.22;;;26.20;57.00;;;;;;4990817;28;20024;-78
2021/05/05 12:46:05;;;;;;;7.00;2.70;;;26.20;56.70;;;;;;4972194;28;20045;-79
2021/05/05 12:48:35;;;;;;;4.75;2.13;;;26.10;57.10;;;;;;4973553;28;20031;-79
2021/05/05 12:51:06;;;;;;;6.65;2.00;;;26.20;56.60;;;;;;4990594;28;20026;-79
2021/05/05 12:53:58;;;;;;;6.38;1.90;;;26.30;55.90;;;;;;4991192;28;20109;-79
2021/05/05 12:56:36;;;;;;;4.50;1.77;;;26.40;55.30;;;;;;4990369;28;20124;-79
2021/05/05 12:59:03;;;;;;;3.97;1.90;;;26.20;55.60;;;;;;4987472;28;20382;-80
2021/05/05 13:01:29;;;;;;;6.00;2.22;;;26.50;56.20;;;;;;4995567;28;20083;-79